createdAt,value
2018-08-17T00:00:35.720Z,953.84
2018-08-17T00:01:35.717Z,953.84
2018-08-17T00:02:35.714Z,953.82
2018-08-17T00:03:35.711Z,953.84
2018-08-17T00:04:35.709Z,953.84
2018-08-17T00:05:35.706Z,953.82
2018-08-17T00:06:35.704Z,953.81
2018-08-17T00:07:35.700Z,953.8
2018-08-17T00:08:35.696Z,953.82
2018-08-17T00:09:35.693Z,953.83
2018-08-17T00:10:35.693Z,953.78
2018-08-17T00:11:35.687Z,953.86
2018-08-17T00:12:35.684Z,953.87
2018-08-17T00:13:35.681Z,953.82
2018-08-17T00:14:35.679Z,953.82
2018-08-17T00:15:35.675Z,953.86
2018-08-17T00:16:35.672Z,953.77
2018-08-17T00:17:35.669Z,953.8
2018-08-17T00:18:35.666Z,953.8
2018-08-17T00:19:35.663Z,953.83
2018-08-17T00:20:35.659Z,953.79
2018-08-17T00:21:35.655Z,953.78
2018-08-17T00:22:35.653Z,953.76
2018-08-17T00:23:35.650Z,953.76
2018-08-17T00:24:35.647Z,953.8
2018-08-17T00:25:35.643Z,953.78
2018-08-17T00:26:35.640Z,953.83
2018-08-17T00:27:35.636Z,953.82
2018-08-17T00:28:35.634Z,953.79
2018-08-17T00:29:35.630Z,953.77
2018-08-17T00:30:35.627Z,953.78
2018-08-17T00:31:35.625Z,953.77
2018-08-17T00:32:35.621Z,953.76
2018-08-17T00:33:35.618Z,953.79
2018-08-17T00:34:35.615Z,953.81
2018-08-17T00:35:35.612Z,953.81
2018-08-17T00:36:35.608Z,953.77
2018-08-17T00:37:35.605Z,953.78
2018-08-17T00:38:35.602Z,953.79
2018-08-17T00:39:35.598Z,953.8
2018-08-17T00:40:35.596Z,953.75
2018-08-17T00:41:35.591Z,953.79
2018-08-17T00:42:35.589Z,953.77
2018-08-17T00:43:35.585Z,953.79
2018-08-17T00:44:35.582Z,953.76
2018-08-17T00:45:35.582Z,953.72
2018-08-17T00:46:35.577Z,953.74
2018-08-17T00:47:35.573Z,953.77
2018-08-17T00:48:35.573Z,953.72
2018-08-17T00:49:35.570Z,953.7
2018-08-17T00:50:35.567Z,953.7
2018-08-17T00:51:35.561Z,953.75
2018-08-17T00:52:35.556Z,953.73
2018-08-17T00:53:35.554Z,953.73
2018-08-17T00:54:35.551Z,953.75
2018-08-17T00:55:35.603Z,953.74
2018-08-17T00:56:35.544Z,953.76
2018-08-17T00:57:35.542Z,953.73
2018-08-17T00:58:35.538Z,953.75
2018-08-17T00:59:35.534Z,953.78
2018-08-17T01:00:35.536Z,953.8
2018-08-17T01:01:35.528Z,953.77
2018-08-17T01:02:35.524Z,953.74
2018-08-17T01:03:35.521Z,953.78
2018-08-17T01:04:35.518Z,953.77
2018-08-17T01:05:35.514Z,953.78
2018-08-17T01:06:35.516Z,953.75
2018-08-17T01:07:35.509Z,953.74
2018-08-17T01:08:35.505Z,953.73
2018-08-17T01:09:35.510Z,953.74
2018-08-17T01:10:35.498Z,953.74
2018-08-17T01:11:35.495Z,953.76
2018-08-17T01:12:35.492Z,953.75
2018-08-17T01:13:35.488Z,953.74
2018-08-17T01:14:35.485Z,953.69
2018-08-17T01:15:35.482Z,953.74
2018-08-17T01:16:35.479Z,953.74
2018-08-17T01:17:35.475Z,953.72
2018-08-17T01:18:35.472Z,953.68
2018-08-17T01:19:35.469Z,953.68
2018-08-17T01:20:35.464Z,953.69
2018-08-17T01:21:35.465Z,953.69
2018-08-17T01:22:35.461Z,953.7
2018-08-17T01:23:35.456Z,953.66
2018-08-17T01:24:35.452Z,953.69
2018-08-17T01:25:35.449Z,953.7
2018-08-17T01:26:35.447Z,953.68
2018-08-17T01:27:35.442Z,953.69
2018-08-17T01:28:35.439Z,953.68
2018-08-17T01:29:35.436Z,953.7
2018-08-17T01:30:35.432Z,953.65
2018-08-17T01:31:35.429Z,953.68
2018-08-17T01:32:35.425Z,953.67
2018-08-17T01:33:35.426Z,953.66
2018-08-17T01:34:35.419Z,953.66
2018-08-17T01:35:35.415Z,953.65
2018-08-17T01:36:35.412Z,953.65
2018-08-17T01:37:35.409Z,953.61
2018-08-17T01:38:35.406Z,953.63
2018-08-17T01:39:35.404Z,953.63
2018-08-17T01:40:35.398Z,953.58
2018-08-17T01:41:35.395Z,953.6
2018-08-17T01:42:35.390Z,953.59
2018-08-17T01:43:35.386Z,953.6
2018-08-17T01:44:35.385Z,953.65
2018-08-17T01:45:35.382Z,953.61
2018-08-17T01:46:35.377Z,953.65
2018-08-17T01:47:35.375Z,953.64
2018-08-17T01:48:35.374Z,953.65
2018-08-17T01:49:35.366Z,953.66
2018-08-17T01:50:35.363Z,953.64
2018-08-17T01:51:35.360Z,953.58
2018-08-17T01:52:35.357Z,953.6
2018-08-17T01:53:35.353Z,953.62
2018-08-17T01:54:35.348Z,953.61
2018-08-17T01:55:35.346Z,953.62
2018-08-17T01:56:35.343Z,953.64
2018-08-17T01:57:35.338Z,953.6
2018-08-17T01:58:35.335Z,953.59
2018-08-17T01:59:35.332Z,953.61
2018-08-17T02:00:35.328Z,953.59
2018-08-17T02:01:35.324Z,953.61
2018-08-17T02:02:35.320Z,953.59
2018-08-17T02:03:35.318Z,953.61
2018-08-17T02:04:35.312Z,953.59
2018-08-17T02:05:35.310Z,953.62
2018-08-17T02:06:35.308Z,953.6
2018-08-17T02:07:35.302Z,953.64
2018-08-17T02:08:35.302Z,953.63
2018-08-17T02:09:35.296Z,953.69
2018-08-17T02:10:35.291Z,953.64
2018-08-17T02:11:35.287Z,953.6
2018-08-17T02:12:35.284Z,953.64
2018-08-17T02:13:35.281Z,953.61
2018-08-17T02:14:35.282Z,953.64
2018-08-17T02:15:35.272Z,953.62
2018-08-17T02:16:35.270Z,953.62
2018-08-17T02:17:35.266Z,953.61
2018-08-17T02:18:35.262Z,953.61
2018-08-17T02:19:35.258Z,953.61
2018-08-17T02:20:35.255Z,953.61
2018-08-17T02:21:35.252Z,953.61
2018-08-17T02:22:35.247Z,953.6
2018-08-17T02:23:35.247Z,953.56
2018-08-17T02:24:35.267Z,953.57
2018-08-17T02:25:35.237Z,953.56
2018-08-17T02:26:35.232Z,953.56
2018-08-17T02:27:35.230Z,953.54
2018-08-17T02:28:35.231Z,953.56
2018-08-17T02:29:35.222Z,953.59
2018-08-17T02:30:35.218Z,953.56
2018-08-17T02:31:35.217Z,953.56
2018-08-17T02:32:35.212Z,953.56
2018-08-17T02:33:35.208Z,953.56
2018-08-17T02:34:35.205Z,953.57
2018-08-17T02:35:35.201Z,953.55
2018-08-17T02:36:35.201Z,953.5
2018-08-17T02:37:35.193Z,953.52
2018-08-17T02:38:35.190Z,953.52
2018-08-17T02:39:35.196Z,953.52
2018-08-17T02:40:35.182Z,953.52
2018-08-17T02:41:35.178Z,953.52
2018-08-17T02:42:35.176Z,953.54
2018-08-17T02:43:35.178Z,953.5
2018-08-17T02:44:35.167Z,953.53
2018-08-17T02:45:35.164Z,953.5
2018-08-17T02:46:35.160Z,953.53
2018-08-17T02:47:35.170Z,953.55
2018-08-17T02:48:35.153Z,953.56
2018-08-17T02:49:35.149Z,953.57
2018-08-17T02:50:35.147Z,953.58
2018-08-17T02:51:35.144Z,953.56
2018-08-17T02:52:35.139Z,953.54
2018-08-17T02:53:35.134Z,953.53
2018-08-17T02:54:35.132Z,953.58
2018-08-17T02:55:35.127Z,953.55
2018-08-17T02:56:35.126Z,953.54
2018-08-17T02:57:35.121Z,953.52
2018-08-17T02:58:35.118Z,953.52
2018-08-17T02:59:35.205Z,953.52
2018-08-17T03:00:35.111Z,953.49
2018-08-17T03:01:35.110Z,953.53
2018-08-17T03:02:35.100Z,953.5
2018-08-17T03:03:35.103Z,953.56
2018-08-17T03:04:35.094Z,953.53
2018-08-17T03:05:35.171Z,953.51
2018-08-17T03:06:35.089Z,953.52
2018-08-17T03:07:35.083Z,953.48
2018-08-17T03:08:35.079Z,953.47
2018-08-17T03:09:35.075Z,953.48
2018-08-17T03:10:35.073Z,953.49
2018-08-17T03:11:35.070Z,953.43
2018-08-17T03:12:35.066Z,953.48
2018-08-17T03:13:35.060Z,953.49
2018-08-17T03:14:35.057Z,953.47
2018-08-17T03:15:35.054Z,953.47
2018-08-17T03:16:35.050Z,953.52
2018-08-17T03:17:35.045Z,953.5
2018-08-17T03:18:35.048Z,953.49
2018-08-17T03:19:35.038Z,953.49
2018-08-17T03:20:35.033Z,953.5
2018-08-17T03:21:35.030Z,953.51
2018-08-17T03:22:35.026Z,953.53
2018-08-17T03:23:35.023Z,953.55
2018-08-17T03:24:35.023Z,953.51
2018-08-17T03:25:35.017Z,953.53
2018-08-17T03:26:35.011Z,953.56
2018-08-17T03:27:35.008Z,953.57
2018-08-17T03:28:35.002Z,953.58
2018-08-17T03:29:34.999Z,953.6
2018-08-17T03:30:34.996Z,953.58
2018-08-17T03:31:34.991Z,953.56
2018-08-17T03:32:34.990Z,953.56
2018-08-17T03:33:34.985Z,953.57
2018-08-17T03:34:34.981Z,953.54
2018-08-17T03:35:34.976Z,953.58
2018-08-17T03:36:34.971Z,953.53
2018-08-17T03:37:34.968Z,953.57
2018-08-17T03:38:34.965Z,953.56
2018-08-17T03:39:34.960Z,953.56
2018-08-17T03:40:34.957Z,953.54
2018-08-17T03:41:34.954Z,953.56
2018-08-17T03:42:34.949Z,953.57
2018-08-17T03:43:34.945Z,953.57
2018-08-17T03:44:34.945Z,953.62
2018-08-17T03:45:34.937Z,953.6
2018-08-17T03:46:34.933Z,953.59
2018-08-17T03:47:34.928Z,953.54
2018-08-17T03:48:34.926Z,953.59
2018-08-17T03:49:34.922Z,953.64
2018-08-17T03:50:34.917Z,953.59
2018-08-17T03:51:34.914Z,953.63
2018-08-17T03:52:34.909Z,953.61
2018-08-17T03:53:34.905Z,953.63
2018-08-17T03:54:34.901Z,953.66
2018-08-17T03:55:34.899Z,953.66
2018-08-17T03:56:34.893Z,953.68
2018-08-17T03:57:34.888Z,953.67
2018-08-17T03:58:34.884Z,953.67
2018-08-17T03:59:34.881Z,953.7
2018-08-17T04:00:34.877Z,953.68
2018-08-17T04:01:34.872Z,953.66
2018-08-17T04:02:34.869Z,953.64
2018-08-17T04:03:34.875Z,953.67
2018-08-17T04:04:34.859Z,953.69
2018-08-17T04:05:34.855Z,953.66
2018-08-17T04:06:34.851Z,953.66
2018-08-17T04:07:34.848Z,953.68
2018-08-17T04:08:34.843Z,953.67
2018-08-17T04:09:34.840Z,953.69
2018-08-17T04:10:34.836Z,953.68
2018-08-17T04:11:34.830Z,953.68
2018-08-17T04:12:34.827Z,953.7
2018-08-17T04:13:34.823Z,953.67
2018-08-17T04:14:34.820Z,953.68
2018-08-17T04:15:34.843Z,953.69
2018-08-17T04:16:34.810Z,953.69
2018-08-17T04:17:34.809Z,953.75
2018-08-17T04:18:34.806Z,953.73
2018-08-17T04:19:34.798Z,953.75
2018-08-17T04:20:34.795Z,953.76
2018-08-17T04:21:34.790Z,953.74
2018-08-17T04:22:34.786Z,953.75
2018-08-17T04:23:34.781Z,953.84
2018-08-17T04:24:34.776Z,953.78
2018-08-17T04:25:34.773Z,953.79
2018-08-17T04:26:34.768Z,953.82
2018-08-17T04:27:34.765Z,953.85
2018-08-17T04:28:34.760Z,953.85
2018-08-17T04:29:34.757Z,953.84
2018-08-17T04:30:34.796Z,953.86
2018-08-17T04:31:34.748Z,953.84
2018-08-17T04:32:34.745Z,953.88
2018-08-17T04:33:34.740Z,953.87
2018-08-17T04:34:34.736Z,953.86
2018-08-17T04:35:34.740Z,953.83
2018-08-17T04:36:34.729Z,953.88
2018-08-17T04:37:34.723Z,953.86
2018-08-17T04:38:34.720Z,953.86
2018-08-17T04:39:34.716Z,953.88
2018-08-17T04:40:34.712Z,953.89
2018-08-17T04:41:34.710Z,953.89
2018-08-17T04:42:34.705Z,953.9
2018-08-17T04:43:34.758Z,953.89
2018-08-17T04:44:34.697Z,953.9
2018-08-17T04:45:34.691Z,953.89
2018-08-17T04:46:34.688Z,953.87
2018-08-17T04:47:34.685Z,953.84
2018-08-17T04:48:34.679Z,953.88
2018-08-17T04:49:34.686Z,953.86
2018-08-17T04:50:34.671Z,953.85
2018-08-17T04:51:34.667Z,953.85
2018-08-17T04:52:34.663Z,953.85
2018-08-17T04:53:34.661Z,953.85
2018-08-17T04:54:34.656Z,953.87
2018-08-17T04:55:34.651Z,953.87
2018-08-17T04:56:34.648Z,953.89
2018-08-17T04:57:34.644Z,953.89
2018-08-17T04:58:34.640Z,953.85
2018-08-17T04:59:34.635Z,953.87
2018-08-17T05:00:34.631Z,953.91
2018-08-17T05:01:34.628Z,953.88
2018-08-17T05:02:34.624Z,953.91
2018-08-17T05:03:34.620Z,953.89
2018-08-17T05:04:34.616Z,953.93
2018-08-17T05:05:34.613Z,953.94
2018-08-17T05:06:34.608Z,953.92
2018-08-17T05:07:34.607Z,953.94
2018-08-17T05:08:34.601Z,953.95
2018-08-17T05:09:34.598Z,953.95
2018-08-17T05:10:34.598Z,953.93
2018-08-17T05:11:34.590Z,953.95
2018-08-17T05:12:34.587Z,953.94
2018-08-17T05:13:34.583Z,953.96
2018-08-17T05:14:34.578Z,953.94
2018-08-17T05:15:34.574Z,953.96
2018-08-17T05:16:34.571Z,953.96
2018-08-17T05:17:34.567Z,953.94
2018-08-17T05:18:34.564Z,953.97
2018-08-17T05:19:34.560Z,953.95
2018-08-17T05:20:34.557Z,953.97
2018-08-17T05:21:34.680Z,953.99
2018-08-17T05:22:34.549Z,953.96
2018-08-17T05:23:34.547Z,953.98
2018-08-17T05:24:34.549Z,953.96
2018-08-17T05:25:34.538Z,954.01
2018-08-17T05:26:34.536Z,953.99
2018-08-17T05:27:34.532Z,954.04
2018-08-17T05:28:34.528Z,954.01
2018-08-17T05:29:34.525Z,954.01
2018-08-17T05:30:34.521Z,954.06
2018-08-17T05:31:34.519Z,954.03
2018-08-17T05:32:34.515Z,954.04
2018-08-17T05:33:34.511Z,954.06
2018-08-17T05:34:34.509Z,954.04
2018-08-17T05:35:34.506Z,954.03
2018-08-17T05:36:34.500Z,954.08
2018-08-17T05:37:34.500Z,954.06
2018-08-17T05:38:34.496Z,954.02
2018-08-17T05:39:34.492Z,954.06
2018-08-17T05:40:34.492Z,954.07
2018-08-17T05:41:34.486Z,954.08
2018-08-17T05:42:34.484Z,954.08
2018-08-17T05:43:34.480Z,954.09
2018-08-17T05:44:34.476Z,954.07
2018-08-17T05:45:34.472Z,954.07
2018-08-17T05:46:34.472Z,954.05
2018-08-17T05:47:34.467Z,954.05
2018-08-17T05:48:34.465Z,954.09
2018-08-17T05:49:34.463Z,954.08
2018-08-17T05:50:34.458Z,954.09
2018-08-17T05:51:34.456Z,954.07
2018-08-17T05:52:34.453Z,954.11
2018-08-17T05:53:34.451Z,954.14
2018-08-17T05:54:34.446Z,954.15
2018-08-17T05:55:34.445Z,954.13
2018-08-17T05:56:34.456Z,954.18
2018-08-17T05:57:34.441Z,954.15
2018-08-17T05:58:34.439Z,954.16
2018-08-17T05:59:34.434Z,954.17
2018-08-17T06:00:34.433Z,954.17
2018-08-17T06:01:34.429Z,954.2
2018-08-17T06:02:34.428Z,954.2
2018-08-17T06:03:34.425Z,954.21
2018-08-17T06:04:34.422Z,954.24
2018-08-17T06:05:34.419Z,954.22
2018-08-17T06:06:34.417Z,954.21
2018-08-17T06:07:34.415Z,954.22
2018-08-17T06:08:34.413Z,954.16
2018-08-17T06:09:34.419Z,954.18
2018-08-17T06:10:34.408Z,954.2
2018-08-17T06:11:34.446Z,954.18
2018-08-17T06:12:34.404Z,954.19
2018-08-17T06:13:34.402Z,954.19
2018-08-17T06:14:34.400Z,954.17
2018-08-17T06:15:34.398Z,954.22
2018-08-17T06:16:34.397Z,954.19
2018-08-17T06:17:34.393Z,954.21
2018-08-17T06:18:34.392Z,954.2
2018-08-17T06:19:34.392Z,954.22
2018-08-17T06:20:34.387Z,954.23
2018-08-17T06:21:34.389Z,954.23
2018-08-17T06:22:34.383Z,954.22
2018-08-17T06:23:34.381Z,954.21
2018-08-17T06:24:34.389Z,954.22
2018-08-17T06:25:34.377Z,954.22
2018-08-17T06:26:34.381Z,954.2
2018-08-17T06:27:34.373Z,954.21
2018-08-17T06:28:34.372Z,954.22
2018-08-17T06:29:34.375Z,954.2
2018-08-17T06:30:34.368Z,954.22
2018-08-17T06:31:34.371Z,954.21
2018-08-17T06:32:34.369Z,954.19
2018-08-17T06:33:34.364Z,954.22
2018-08-17T06:34:34.361Z,954.21
2018-08-17T06:35:34.360Z,954.21
2018-08-17T06:36:34.360Z,954.2
2018-08-17T06:37:34.358Z,954.23
2018-08-17T06:38:34.356Z,954.26
2018-08-17T06:39:34.355Z,954.26
2018-08-17T06:40:34.355Z,954.29
2018-08-17T06:41:34.351Z,954.27
2018-08-17T06:42:34.351Z,954.21
2018-08-17T06:43:34.350Z,954.25
2018-08-17T06:44:34.349Z,954.23
2018-08-17T06:45:34.348Z,954.28
2018-08-17T06:46:34.347Z,954.23
2018-08-17T06:47:34.349Z,954.25
2018-08-17T06:48:34.345Z,954.24
2018-08-17T06:49:34.344Z,954.25
2018-08-17T06:50:34.363Z,954.3
2018-08-17T06:51:34.343Z,954.3
2018-08-17T06:52:34.340Z,954.29
2018-08-17T06:53:34.341Z,954.35
2018-08-17T06:54:34.339Z,954.34
2018-08-17T06:55:34.340Z,954.35
2018-08-17T06:56:34.339Z,954.31
2018-08-17T06:57:34.338Z,954.34
2018-08-17T06:58:34.338Z,954.39
2018-08-17T06:59:34.339Z,954.43
2018-08-17T07:00:34.337Z,954.42
2018-08-17T07:01:34.338Z,954.46
2018-08-17T07:02:34.375Z,954.46
2018-08-17T07:03:34.339Z,954.43
2018-08-17T07:04:34.343Z,954.4
2018-08-17T07:05:34.342Z,954.39
2018-08-17T07:06:34.342Z,954.41
2018-08-17T07:07:34.341Z,954.42
2018-08-17T07:08:34.402Z,954.42
2018-08-17T07:09:34.367Z,954.45
2018-08-17T07:10:34.349Z,954.42
2018-08-17T07:11:34.350Z,954.38
2018-08-17T07:12:34.353Z,954.41
2018-08-17T07:13:34.358Z,954.39
2018-08-17T07:14:34.360Z,954.41
2018-08-17T07:15:34.365Z,954.47
2018-08-17T07:16:34.371Z,954.53
2018-08-17T07:17:34.370Z,954.52
2018-08-17T07:18:34.377Z,954.55
2018-08-17T07:19:34.380Z,954.56
2018-08-17T07:20:34.383Z,954.56
2018-08-17T07:21:34.446Z,954.66
2018-08-17T07:22:34.392Z,954.63
2018-08-17T07:23:34.398Z,954.59
2018-08-17T07:24:34.404Z,954.6
2018-08-17T07:25:34.422Z,954.63
2018-08-17T07:26:34.415Z,954.67
2018-08-17T07:27:34.445Z,954.69
2018-08-17T07:28:34.580Z,954.75
2018-08-17T07:29:34.431Z,954.82
2018-08-17T07:30:34.439Z,954.87
2018-08-17T07:31:34.445Z,955.02
2018-08-17T07:32:34.451Z,955.21
2018-08-17T07:33:34.458Z,955.25
2018-08-17T07:34:34.464Z,955.27
2018-08-17T07:35:34.507Z,955.1
2018-08-17T07:36:34.477Z,954.65
2018-08-17T07:37:34.483Z,954.4
2018-08-17T07:38:34.492Z,954.34
2018-08-17T07:39:34.498Z,954.33
2018-08-17T07:40:34.504Z,954.36
2018-08-17T07:41:34.555Z,954.4
2018-08-17T07:42:34.517Z,954.38
2018-08-17T07:43:34.529Z,954.38
2018-08-17T07:44:34.530Z,954.39
2018-08-17T07:45:34.544Z,954.39
2018-08-17T07:46:34.544Z,954.38
2018-08-17T07:47:34.550Z,954.4
2018-08-17T07:48:34.557Z,954.38
2018-08-17T07:49:34.563Z,954.37
2018-08-17T07:50:34.570Z,954.34
2018-08-17T07:51:34.576Z,954.36
2018-08-17T07:52:34.582Z,954.31
2018-08-17T07:53:34.597Z,954.4
2018-08-17T07:54:34.594Z,954.42
2018-08-17T07:55:34.599Z,954.42
2018-08-17T07:56:34.605Z,954.44
2018-08-17T07:57:34.611Z,954.48
2018-08-17T07:58:34.619Z,954.49
2018-08-17T07:59:34.622Z,954.48
2018-08-17T08:00:34.634Z,954.52
2018-08-17T08:01:34.633Z,954.49
2018-08-17T08:02:34.640Z,954.48
2018-08-17T08:03:34.649Z,954.52
2018-08-17T08:04:34.651Z,954.52
2018-08-17T08:05:34.655Z,954.52
2018-08-17T08:06:34.660Z,954.53
2018-08-17T08:07:34.666Z,954.51
2018-08-17T08:08:34.671Z,954.52
2018-08-17T08:09:34.680Z,954.51
2018-08-17T08:10:34.680Z,954.52
2018-08-17T08:11:34.686Z,954.5
2018-08-17T08:12:34.691Z,954.55
2018-08-17T08:13:34.735Z,954.52
2018-08-17T08:14:34.701Z,954.53
2018-08-17T08:15:34.705Z,954.54
2018-08-17T08:16:34.710Z,954.57
2018-08-17T08:17:34.715Z,954.59
2018-08-17T08:18:34.730Z,954.6
2018-08-17T08:19:34.725Z,954.63
2018-08-17T08:20:34.729Z,954.61
2018-08-17T08:21:34.735Z,954.63
2018-08-17T08:22:34.740Z,954.6
2018-08-17T08:23:34.752Z,954.63
2018-08-17T08:24:34.748Z,954.56
2018-08-17T08:25:34.753Z,954.59
2018-08-17T08:26:34.758Z,954.62
2018-08-17T08:27:34.763Z,954.57
2018-08-17T08:28:34.767Z,954.61
2018-08-17T08:29:34.772Z,954.57
2018-08-17T08:30:34.776Z,954.61
2018-08-17T08:31:34.781Z,954.59
2018-08-17T08:32:34.882Z,954.59
2018-08-17T08:33:34.791Z,954.64
2018-08-17T08:34:34.795Z,954.6
2018-08-17T08:35:34.800Z,954.67
2018-08-17T08:36:34.804Z,954.64
2018-08-17T08:37:34.807Z,954.61
2018-08-17T08:38:34.814Z,954.61
2018-08-17T08:39:34.818Z,954.57
2018-08-17T08:40:34.821Z,954.62
2018-08-17T08:41:34.834Z,954.61
2018-08-17T08:42:34.830Z,954.63
2018-08-17T08:43:34.835Z,954.68
2018-08-17T08:44:34.841Z,954.61
2018-08-17T08:45:34.932Z,954.62
2018-08-17T08:46:34.849Z,954.64
2018-08-17T08:47:34.853Z,954.61
2018-08-17T08:48:34.859Z,954.62
2018-08-17T08:49:34.863Z,954.58
2018-08-17T08:50:34.867Z,954.6
2018-08-17T08:51:34.871Z,954.59
2018-08-17T08:52:34.874Z,954.6
2018-08-17T08:53:34.879Z,954.64
2018-08-17T08:54:34.887Z,954.61
2018-08-17T08:55:34.889Z,954.69
2018-08-17T08:56:34.893Z,954.62
2018-08-17T08:57:34.897Z,954.68
2018-08-17T08:58:34.904Z,954.68
2018-08-17T08:59:34.906Z,954.71
2018-08-17T09:00:34.909Z,954.7
2018-08-17T09:01:34.967Z,954.7
2018-08-17T09:02:34.918Z,954.7
2018-08-17T09:03:34.922Z,954.65
2018-08-17T09:04:34.926Z,954.69
2018-08-17T09:05:34.930Z,954.71
2018-08-17T09:06:34.935Z,954.68
2018-08-17T09:07:34.941Z,954.71
2018-08-17T09:08:34.956Z,954.7
2018-08-17T09:09:34.948Z,954.71
2018-08-17T09:10:34.952Z,954.74
2018-08-17T09:11:34.959Z,954.74
2018-08-17T09:12:34.960Z,954.76
2018-08-17T09:13:34.979Z,954.76
2018-08-17T09:14:34.970Z,954.75
2018-08-17T09:15:34.973Z,954.77
2018-08-17T09:16:34.977Z,954.76
2018-08-17T09:17:34.986Z,954.77
2018-08-17T09:18:34.986Z,954.76
2018-08-17T09:19:34.992Z,954.74
2018-08-17T09:20:35.014Z,954.71
2018-08-17T09:21:35.000Z,954.72
2018-08-17T09:22:35.004Z,954.71
2018-08-17T09:23:35.009Z,954.72
2018-08-17T09:24:35.016Z,954.71
2018-08-17T09:25:35.018Z,954.77
2018-08-17T09:26:35.022Z,954.65
2018-08-17T09:27:35.027Z,954.67
2018-08-17T09:28:35.032Z,954.65
2018-08-17T09:29:35.036Z,954.64
2018-08-17T09:30:35.041Z,954.67
2018-08-17T09:31:35.045Z,954.62
2018-08-17T09:32:35.050Z,954.61
2018-08-17T09:33:35.053Z,954.64
2018-08-17T09:34:35.059Z,954.63
2018-08-17T09:35:35.063Z,954.6
2018-08-17T09:36:35.068Z,954.62
2018-08-17T09:37:35.072Z,954.52
2018-08-17T09:38:35.076Z,954.56
2018-08-17T09:39:35.081Z,954.59
2018-08-17T09:40:35.085Z,954.56
2018-08-17T09:41:35.095Z,954.57
2018-08-17T09:42:35.094Z,954.55
2018-08-17T09:43:35.099Z,954.54
2018-08-17T09:44:35.102Z,954.58
2018-08-17T09:45:35.111Z,954.56
2018-08-17T09:46:35.112Z,954.56
2018-08-17T09:47:35.116Z,954.53
2018-08-17T09:48:35.123Z,954.49
2018-08-17T09:49:35.125Z,954.55
2018-08-17T09:50:35.129Z,954.51
2018-08-17T09:51:35.133Z,954.49
2018-08-17T09:52:35.138Z,954.47
2018-08-17T09:53:35.141Z,954.51
2018-08-17T09:54:35.146Z,954.47
2018-08-17T09:55:35.151Z,954.5
2018-08-17T09:56:35.156Z,954.51
2018-08-17T09:57:35.200Z,954.54
2018-08-17T09:58:35.169Z,954.53
2018-08-17T09:59:35.169Z,954.55
2018-08-17T10:00:35.172Z,954.52
2018-08-17T10:01:35.176Z,954.47
2018-08-17T10:02:35.181Z,954.46
2018-08-17T10:03:35.224Z,954.47
2018-08-17T10:04:35.191Z,954.45
2018-08-17T10:05:35.196Z,954.44
2018-08-17T10:06:35.199Z,954.44
2018-08-17T10:07:35.204Z,954.43
2018-08-17T10:08:35.210Z,954.43
2018-08-17T10:09:35.214Z,954.45
2018-08-17T10:10:35.220Z,954.48
2018-08-17T10:11:35.223Z,954.43
2018-08-17T10:12:35.227Z,954.45
2018-08-17T10:13:35.231Z,954.45
2018-08-17T10:14:35.236Z,954.44
2018-08-17T10:15:35.241Z,954.48
2018-08-17T10:16:35.246Z,954.45
2018-08-17T10:17:35.251Z,954.44
2018-08-17T10:18:35.255Z,954.45
2018-08-17T10:19:35.260Z,954.45
2018-08-17T10:20:35.265Z,954.42
2018-08-17T10:21:35.422Z,954.4
2018-08-17T10:22:35.274Z,954.4
2018-08-17T10:23:35.280Z,954.43
2018-08-17T10:24:35.285Z,954.41
2018-08-17T10:25:35.288Z,954.37
2018-08-17T10:26:35.294Z,954.41
2018-08-17T10:27:35.300Z,954.4
2018-08-17T10:28:35.304Z,954.42
2018-08-17T10:29:35.310Z,954.39
2018-08-17T10:30:35.315Z,954.41
2018-08-17T10:31:35.320Z,954.41
2018-08-17T10:32:35.328Z,954.39
2018-08-17T10:33:35.330Z,954.36
2018-08-17T10:34:35.337Z,954.36
2018-08-17T10:35:35.341Z,954.35
2018-08-17T10:36:35.346Z,954.34
2018-08-17T10:37:35.365Z,954.38
2018-08-17T10:38:35.358Z,954.37
2018-08-17T10:39:35.363Z,954.34
2018-08-17T10:40:35.405Z,954.32
2018-08-17T10:41:35.375Z,954.3
2018-08-17T10:42:35.381Z,954.32
2018-08-17T10:43:35.386Z,954.31
2018-08-17T10:44:35.391Z,954.32
2018-08-17T10:45:35.402Z,954.3
2018-08-17T10:46:35.402Z,954.34
2018-08-17T10:47:35.409Z,954.25
2018-08-17T10:48:35.419Z,954.27
2018-08-17T10:49:35.420Z,954.24
2018-08-17T10:50:35.427Z,954.25
2018-08-17T10:51:35.432Z,954.28
2018-08-17T10:52:35.439Z,954.26
2018-08-17T10:53:35.444Z,954.28
2018-08-17T10:54:35.450Z,954.28
2018-08-17T10:55:35.501Z,954.26
2018-08-17T10:56:35.462Z,954.29
2018-08-17T10:57:35.629Z,954.26
2018-08-17T10:58:35.473Z,954.25
2018-08-17T10:59:35.478Z,954.26
2018-08-17T11:00:35.485Z,954.24
2018-08-17T11:01:35.489Z,954.27
2018-08-17T11:02:35.496Z,954.26
2018-08-17T11:03:35.501Z,954.26
2018-08-17T11:04:35.507Z,954.24
2018-08-17T11:05:35.569Z,954.22
2018-08-17T11:06:35.519Z,954.24
2018-08-17T11:07:35.524Z,954.21
2018-08-17T11:08:35.529Z,954.24
2018-08-17T11:09:35.536Z,954.22
2018-08-17T11:10:35.542Z,954.23
2018-08-17T11:11:35.548Z,954.24
2018-08-17T11:12:35.554Z,954.24
2018-08-17T11:13:35.655Z,954.25
2018-08-17T11:14:35.566Z,954.28
2018-08-17T11:15:35.573Z,954.29
2018-08-17T11:16:35.576Z,954.3
2018-08-17T11:17:35.583Z,954.34
2018-08-17T11:18:35.594Z,954.32
2018-08-17T11:19:35.594Z,954.3
2018-08-17T11:20:35.600Z,954.25
2018-08-17T11:21:35.607Z,954.22
2018-08-17T11:22:35.612Z,954.24
2018-08-17T11:23:35.618Z,954.26
2018-08-17T11:24:35.624Z,954.27
2018-08-17T11:25:35.629Z,954.24
2018-08-17T11:26:35.635Z,954.24
2018-08-17T11:27:35.642Z,954.24
2018-08-17T11:28:35.648Z,954.22
2018-08-17T11:29:35.654Z,954.27
2018-08-17T11:30:35.659Z,954.27
2018-08-17T11:31:35.665Z,954.22
2018-08-17T11:32:35.672Z,954.21
2018-08-17T11:33:35.678Z,954.23
2018-08-17T11:34:35.683Z,954.26
2018-08-17T11:35:35.688Z,954.2
2018-08-17T11:36:35.694Z,954.21
2018-08-17T11:37:35.699Z,954.21
2018-08-17T11:38:35.706Z,954.2
2018-08-17T11:39:35.711Z,954.16
2018-08-17T11:40:35.718Z,954.2
2018-08-17T11:41:35.829Z,954.17
2018-08-17T11:42:35.728Z,954.18
2018-08-17T11:43:35.734Z,954.16
2018-08-17T11:44:35.739Z,954.15
2018-08-17T11:45:35.744Z,954.21
2018-08-17T11:46:35.751Z,954.18
2018-08-17T11:47:35.759Z,954.16
2018-08-17T11:48:35.771Z,954.18
2018-08-17T11:49:35.766Z,954.14
2018-08-17T11:50:35.773Z,954.14
2018-08-17T11:51:35.783Z,954.14
2018-08-17T11:52:35.782Z,954.15
2018-08-17T11:53:35.927Z,954.17
2018-08-17T11:54:35.801Z,954.14
2018-08-17T11:55:35.830Z,954.13
2018-08-17T11:56:35.805Z,954.13
2018-08-17T11:57:35.813Z,954.16
2018-08-17T11:58:35.817Z,954.16
2018-08-17T11:59:35.822Z,954.16
2018-08-17T12:00:35.828Z,954.12
2018-08-17T12:01:35.833Z,954.11
2018-08-17T12:02:35.839Z,954.1
2018-08-17T12:03:35.844Z,954.15
2018-08-17T12:04:35.854Z,954.15
2018-08-17T12:05:35.855Z,954.12
2018-08-17T12:06:35.860Z,954.08
2018-08-17T12:07:35.867Z,954.07
2018-08-17T12:08:35.932Z,954.07
2018-08-17T12:09:35.878Z,954.1
2018-08-17T12:10:35.882Z,954.15
2018-08-17T12:11:35.889Z,954.12
2018-08-17T12:12:35.894Z,954.1
2018-08-17T12:13:35.901Z,954.09
2018-08-17T12:14:35.906Z,954.11
2018-08-17T12:15:35.912Z,954.12
2018-08-17T12:16:35.920Z,954.11
2018-08-17T12:17:35.923Z,954.07
2018-08-17T12:18:35.932Z,954.07
2018-08-17T12:19:35.934Z,954.05
2018-08-17T12:20:35.943Z,954.06
2018-08-17T12:21:35.944Z,954.07
2018-08-17T12:22:35.950Z,954.06
2018-08-17T12:23:35.957Z,954.06
2018-08-17T12:24:36.014Z,954.06
2018-08-17T12:25:35.967Z,954.05
2018-08-17T12:26:35.973Z,954.08
2018-08-17T12:27:35.980Z,954.06
2018-08-17T12:28:35.986Z,954.06
2018-08-17T12:29:35.996Z,954.06
2018-08-17T12:30:35.998Z,954.04